sensor_id;sensor_type;location;lat;lon;timestamp;P1;durP1;ratioP1;P2;durP2;ratioP2
2712;SDS011;1366;47.988;7.856;2022-10-24T04:00:24;4.50;;;3.07;;
2712;SDS011;1366;47.988;7.856;2022-10-24T04:02:53;3.67;;;2.97;;
2712;SDS011;1366;47.988;7.856;2022-10-24T04:05:19;3.00;;;2.40;;
2712;SDS011;1366;47.988;7.856;2022-10-24T04:07:45;5.50;;;3.30;;
2712;SDS011;1366;47.988;7.856;2022-10-24T04:10:11;3.00;;;2.60;;
2712;SDS011;1366;47.988;7.856;2022-10-24T04:12:37;2.47;;;2.20;;
2712;SDS011;1366;47.988;7.856;2022-10-24T04:15:04;4.30;;;2.50;;
2712;SDS011;1366;47.988;7.856;2022-10-24T04:20:00;2.97;;;2.67;;
2712;SDS011;1366;47.988;7.856;2022-10-24T04:22:26;6.00;;;2.93;;
2712;SDS011;1366;47.988;7.856;2022-10-24T04:24:52;4.87;;;2.20;;
2712;SDS011;1366;47.988;7.856;2022-10-24T04:27:18;4.07;;;2.50;;
2712;SDS011;1366;47.988;7.856;2022-10-24T04:29:44;7.27;;;2.30;;
2712;SDS011;1366;47.988;7.856;2022-10-24T04:32:10;5.70;;;3.37;;
2712;SDS011;1366;47.988;7.856;2022-10-24T04:34:36;7.93;;;3.27;;
2712;SDS011;1366;47.988;7.856;2022-10-24T04:37:02;3.40;;;2.93;;
2712;SDS011;1366;47.988;7.856;2022-10-24T04:39:28;4.53;;;2.97;;
2712;SDS011;1366;47.988;7.856;2022-10-24T04:41:55;3.63;;;2.60;;
2712;SDS011;1366;47.988;7.856;2022-10-24T04:44:21;3.83;;;3.10;;
2712;SDS011;1366;47.988;7.856;2022-10-24T04:46:47;4.50;;;2.07;;
2712;SDS011;1366;47.988;7.856;2022-10-24T04:49:13;4.80;;;2.50;;
2712;SDS011;1366;47.988;7.856;2022-10-24T04:51:39;8.30;;;2.43;;
2712;SDS011;1366;47.988;7.856;2022-10-24T04:54:05;2.67;;;2.47;;
2712;SDS011;1366;47.988;7.856;2022-10-24T04:56:32;5.13;;;2.43;;
2712;SDS011;1366;47.988;7.856;2022-10-24T04:58:58;6.10;;;2.33;;
2712;SDS011;1366;47.988;7.856;2022-10-24T05:01:24;3.17;;;2.87;;
2712;SDS011;1366;47.988;7.856;2022-10-24T05:03:50;6.10;;;2.63;;
2712;SDS011;1366;47.988;7.856;2022-10-24T05:06:16;3.03;;;2.77;;
2712;SDS011;1366;47.988;7.856;2022-10-24T05:08:42;2.83;;;2.37;;
2712;SDS011;1366;47.988;7.856;2022-10-24T05:11:08;3.77;;;2.40;;
2712;SDS011;1366;47.988;7.856;2022-10-24T05:13:35;5.97;;;2.77;;
2712;SDS011;1366;47.988;7.856;2022-10-24T05:16:02;6.20;;;2.80;;
2712;SDS011;1366;47.988;7.856;2022-10-24T05:18:28;7.37;;;2.83;;
2712;SDS011;1366;47.988;7.856;2022-10-24T05:20:55;5.37;;;3.70;;
2712;SDS011;1366;47.988;7.856;2022-10-24T05:23:21;4.33;;;2.60;;
2712;SDS011;1366;47.988;7.856;2022-10-24T05:25:47;3.20;;;2.30;;
2712;SDS011;1366;47.988;7.856;2022-10-24T05:28:13;6.87;;;2.50;;
2712;SDS011;1366;47.988;7.856;2022-10-24T05:30:41;3.00;;;2.07;;
2712;SDS011;1366;47.988;7.856;2022-10-24T05:33:07;4.77;;;2.40;;
2712;SDS011;1366;47.988;7.856;2022-10-24T05:35:33;6.30;;;2.33;;
2712;SDS011;1366;47.988;7.856;2022-10-24T05:37:59;3.20;;;2.17;;
2712;SDS011;1366;47.988;7.856;2022-10-24T05:40:26;4.83;;;2.87;;
2712;SDS011;1366;47.988;7.856;2022-10-24T05:42:52;8.87;;;3.13;;
2712;SDS011;1366;47.988;7.856;2022-10-24T05:45:18;6.77;;;2.60;;
2712;SDS011;1366;47.988;7.856;2022-10-24T05:47:44;4.70;;;2.83;;
2712;SDS011;1366;47.988;7.856;2022-10-24T05:50:10;4.33;;;3.00;;
2712;SDS011;1366;47.988;7.856;2022-10-24T05:52:36;3.90;;;2.83;;
2712;SDS011;1366;47.988;7.856;2022-10-24T05:55:04;4.40;;;2.63;;
2712;SDS011;1366;47.988;7.856;2022-10-24T05:57:30;9.63;;;3.20;;
2712;SDS011;1366;47.988;7.856;2022-10-24T05:59:57;4.77;;;2.57;;
2712;SDS011;1366;47.988;7.856;2022-10-24T06:02:23;4.90;;;3.17;;
2712;SDS011;1366;47.988;7.856;2022-10-24T06:04:49;4.93;;;2.80;;
2712;SDS011;1366;47.988;7.856;2022-10-24T06:07:15;4.73;;;2.37;;
2712;SDS011;1366;47.988;7.856;2022-10-24T06:09:42;5.70;;;2.87;;
2712;SDS011;1366;47.988;7.856;2022-10-24T06:12:08;5.17;;;2.60;;
2712;SDS011;1366;47.988;7.856;2022-10-24T06:14:35;3.13;;;2.63;;
2712;SDS011;1366;47.988;7.856;2022-10-24T06:17:01;4.50;;;2.50;;
2712;SDS011;1366;47.988;7.856;2022-10-24T06:19:29;6.20;;;3.50;;
2712;SDS011;1366;47.988;7.856;2022-10-24T06:21:56;6.80;;;3.73;;
2712;SDS011;1366;47.988;7.856;2022-10-24T06:24:22;6.80;;;3.23;;
2712;SDS011;1366;47.988;7.856;2022-10-24T06:26:48;5.00;;;2.80;;
2712;SDS011;1366;47.988;7.856;2022-10-24T06:29:14;3.80;;;2.47;;
2712;SDS011;1366;47.988;7.856;2022-10-24T06:31:40;4.73;;;3.23;;
2712;SDS011;1366;47.988;7.856;2022-10-24T06:34:06;5.47;;;2.63;;
2712;SDS011;1366;47.988;7.856;2022-10-24T06:36:32;3.53;;;2.97;;
2712;SDS011;1366;47.988;7.856;2022-10-24T06:38:59;6.20;;;2.80;;
2712;SDS011;1366;47.988;7.856;2022-10-24T06:41:25;7.40;;;2.33;;
2712;SDS011;1366;47.988;7.856;2022-10-24T06:43:51;2.83;;;2.60;;
2712;SDS011;1366;47.988;7.856;2022-10-24T06:46:18;4.30;;;2.70;;
2712;SDS011;1366;47.988;7.856;2022-10-24T06:48:47;3.20;;;2.70;;
2712;SDS011;1366;47.988;7.856;2022-10-24T06:51:14;5.90;;;2.90;;
2712;SDS011;1366;47.988;7.856;2022-10-24T06:53:40;7.50;;;3.10;;
2712;SDS011;1366;47.988;7.856;2022-10-24T06:56:06;4.23;;;2.73;;
2712;SDS011;1366;47.988;7.856;2022-10-24T06:58:33;4.63;;;3.13;;
2712;SDS011;1366;47.988;7.856;2022-10-24T07:01:05;6.80;;;3.77;;
2712;SDS011;1366;47.988;7.856;2022-10-24T07:03:31;4.03;;;2.70;;
2712;SDS011;1366;47.988;7.856;2022-10-24T07:05:57;7.67;;;2.97;;
2712;SDS011;1366;47.988;7.856;2022-10-24T07:08:23;6.20;;;2.97;;
2712;SDS011;1366;47.988;7.856;2022-10-24T07:10:49;3.10;;;2.80;;
2712;SDS011;1366;47.988;7.856;2022-10-24T07:13:15;3.67;;;2.47;;
2712;SDS011;1366;47.988;7.856;2022-10-24T07:15:41;3.63;;;2.80;;
2712;SDS011;1366;47.988;7.856;2022-10-24T07:18:11;4.90;;;2.97;;
2712;SDS011;1366;47.988;7.856;2022-10-24T07:20:38;4.27;;;2.53;;
2712;SDS011;1366;47.988;7.856;2022-10-24T07:23:04;4.93;;;2.57;;
2712;SDS011;1366;47.988;7.856;2022-10-24T07:25:30;3.67;;;3.00;;
2712;SDS011;1366;47.988;7.856;2022-10-24T07:27:56;3.80;;;2.53;;
2712;SDS011;1366;47.988;7.856;2022-10-24T07:30:22;5.13;;;2.70;;
2712;SDS011;1366;47.988;7.856;2022-10-24T07:32:48;3.50;;;2.50;;
2712;SDS011;1366;47.988;7.856;2022-10-24T07:35:14;5.03;;;2.73;;
2712;SDS011;1366;47.988;7.856;2022-10-24T07:37:40;6.03;;;3.20;;
2712;SDS011;1366;47.988;7.856;2022-10-24T07:40:07;4.53;;;2.17;;
2712;SDS011;1366;47.988;7.856;2022-10-24T07:42:33;2.40;;;2.20;;
2712;SDS011;1366;47.988;7.856;2022-10-24T07:44:59;13.50;;;3.30;;
2712;SDS011;1366;47.988;7.856;2022-10-24T07:47:26;4.03;;;3.23;;
2712;SDS011;1366;47.988;7.856;2022-10-24T07:49:52;5.37;;;3.03;;
2712;SDS011;1366;47.988;7.856;2022-10-24T07:52:18;3.47;;;2.60;;
2712;SDS011;1366;47.988;7.856;2022-10-24T07:54:44;2.77;;;2.40;;
2712;SDS011;1366;47.988;7.856;2022-10-24T07:57:11;5.73;;;2.97;;
2712;SDS011;1366;47.988;7.856;2022-10-24T07:59:37;4.00;;;2.50;;
2712;SDS011;1366;47.988;7.856;2022-10-24T08:02:03;5.63;;;3.10;;
2712;SDS011;1366;47.988;7.856;2022-10-24T08:04:29;4.13;;;2.83;;
2712;SDS011;1366;47.988;7.856;2022-10-24T08:06:55;4.57;;;2.83;;
2712;SDS011;1366;47.988;7.856;2022-10-24T08:09:21;6.63;;;3.33;;
2712;SDS011;1366;47.988;7.856;2022-10-24T08:11:48;6.23;;;3.20;;
2712;SDS011;1366;47.988;7.856;2022-10-24T08:14:14;4.90;;;3.00;;
2712;SDS011;1366;47.988;7.856;2022-10-24T08:16:40;6.13;;;3.00;;
2712;SDS011;1366;47.988;7.856;2022-10-24T08:19:06;4.07;;;3.27;;
2712;SDS011;1366;47.988;7.856;2022-10-24T08:21:32;3.50;;;2.70;;
2712;SDS011;1366;47.988;7.856;2022-10-24T08:24:00;3.17;;;2.87;;
2712;SDS011;1366;47.988;7.856;2022-10-24T08:26:26;6.80;;;3.00;;
2712;SDS011;1366;47.988;7.856;2022-10-24T08:28:52;8.40;;;3.13;;
2712;SDS011;1366;47.988;7.856;2022-10-24T08:31:20;4.83;;;2.53;;
2712;SDS011;1366;47.988;7.856;2022-10-24T08:33:46;6.37;;;3.13;;
2712;SDS011;1366;47.988;7.856;2022-10-24T08:36:18;4.00;;;2.93;;
2712;SDS011;1366;47.988;7.856;2022-10-24T08:38:44;3.20;;;2.57;;
2712;SDS011;1366;47.988;7.856;2022-10-24T08:41:15;5.80;;;3.00;;
2712;SDS011;1366;47.988;7.856;2022-10-24T08:43:43;5.07;;;2.73;;
2712;SDS011;1366;47.988;7.856;2022-10-24T08:48:56;3.17;;;2.97;;
2712;SDS011;1366;47.988;7.856;2022-10-24T08:51:25;5.37;;;3.60;;
2712;SDS011;1366;47.988;7.856;2022-10-24T08:53:54;5.10;;;2.90;;
2712;SDS011;1366;47.988;7.856;2022-10-24T08:56:22;5.83;;;2.80;;
2712;SDS011;1366;47.988;7.856;2022-10-24T08:58:49;3.60;;;2.73;;
2712;SDS011;1366;47.988;7.856;2022-10-24T09:01:20;4.83;;;3.13;;
2712;SDS011;1366;47.988;7.856;2022-10-24T09:03:49;3.20;;;2.90;;
2712;SDS011;1366;47.988;7.856;2022-10-24T09:08:45;4.10;;;2.97;;
2712;SDS011;1366;47.988;7.856;2022-10-24T09:11:14;7.23;;;2.80;;
2712;SDS011;1366;47.988;7.856;2022-10-24T09:13:42;5.30;;;2.77;;
2712;SDS011;1366;47.988;7.856;2022-10-24T09:16:09;4.40;;;3.17;;
2712;SDS011;1366;47.988;7.856;2022-10-24T09:18:39;3.60;;;3.10;;
2712;SDS011;1366;47.988;7.856;2022-10-24T09:21:06;5.67;;;2.83;;
2712;SDS011;1366;47.988;7.856;2022-10-24T09:23:34;4.93;;;3.30;;
2712;SDS011;1366;47.988;7.856;2022-10-24T09:26:01;6.30;;;3.90;;
2712;SDS011;1366;47.988;7.856;2022-10-24T09:28:28;3.63;;;3.33;;
2712;SDS011;1366;47.988;7.856;2022-10-24T09:30:54;6.13;;;4.33;;
2712;SDS011;1366;47.988;7.856;2022-10-24T09:33:32;6.17;;;3.40;;
2712;SDS011;1366;47.988;7.856;2022-10-24T09:36:00;6.40;;;3.30;;
2712;SDS011;1366;47.988;7.856;2022-10-24T09:38:34;5.47;;;3.10;;
2712;SDS011;1366;47.988;7.856;2022-10-24T09:46:08;4.47;;;4.00;;
2712;SDS011;1366;47.988;7.856;2022-10-24T09:48:47;4.57;;;4.10;;
2712;SDS011;1366;47.988;7.856;2022-10-24T09:51:23;6.37;;;3.70;;
2712;SDS011;1366;47.988;7.856;2022-10-24T09:53:58;6.67;;;4.10;;
2712;SDS011;1366;47.988;7.856;2022-10-24T09:56:31;5.53;;;3.53;;
2712;SDS011;1366;47.988;7.856;2022-10-24T09:59:15;4.33;;;3.23;;
2712;SDS011;1366;47.988;7.856;2022-10-24T10:01:41;5.70;;;2.80;;
2712;SDS011;1366;47.988;7.856;2022-10-24T10:04:11;4.67;;;3.00;;
2712;SDS011;1366;47.988;7.856;2022-10-24T10:06:43;3.57;;;3.27;;
2712;SDS011;1366;47.988;7.856;2022-10-24T10:09:11;5.43;;;3.50;;
2712;SDS011;1366;47.988;7.856;2022-10-24T10:11:37;6.53;;;2.90;;
2712;SDS011;1366;47.988;7.856;2022-10-24T10:14:03;4.77;;;3.50;;
2712;SDS011;1366;47.988;7.856;2022-10-24T10:16:40;6.27;;;3.23;;
2712;SDS011;1366;47.988;7.856;2022-10-24T10:19:19;3.87;;;2.80;;
2712;SDS011;1366;47.988;7.856;2022-10-24T10:21:53;4.17;;;3.37;;
2712;SDS011;1366;47.988;7.856;2022-10-24T10:26:57;4.97;;;3.20;;
2712;SDS011;1366;47.988;7.856;2022-10-24T10:29:23;4.57;;;3.20;;
2712;SDS011;1366;47.988;7.856;2022-10-24T10:31:52;3.90;;;2.67;;
2712;SDS011;1366;47.988;7.856;2022-10-24T10:34:25;3.73;;;2.70;;
2712;SDS011;1366;47.988;7.856;2022-10-24T10:42:02;2.27;;;2.07;;
2712;SDS011;1366;47.988;7.856;2022-10-24T10:47:11;2.60;;;1.80;;
2712;SDS011;1366;47.988;7.856;2022-10-24T10:49:38;2.83;;;2.30;;
2712;SDS011;1366;47.988;7.856;2022-10-24T10:52:05;2.30;;;2.10;;
2712;SDS011;1366;47.988;7.856;2022-10-24T10:57:09;5.70;;;3.10;;
2712;SDS011;1366;47.988;7.856;2022-10-24T11:07:37;2.70;;;1.67;;
2712;SDS011;1366;47.988;7.856;2022-10-24T11:10:09;5.17;;;2.00;;
2712;SDS011;1366;47.988;7.856;2022-10-24T11:12:38;2.50;;;2.00;;
2712;SDS011;1366;47.988;7.856;2022-10-24T11:17:51;4.53;;;2.20;;
2712;SDS011;1366;47.988;7.856;2022-10-24T11:22:47;1.53;;;1.43;;
2712;SDS011;1366;47.988;7.856;2022-10-24T11:27:43;1.80;;;1.70;;
2712;SDS011;1366;47.988;7.856;2022-10-24T11:30:13;3.00;;;1.93;;
2712;SDS011;1366;47.988;7.856;2022-10-24T11:32:53;2.90;;;2.50;;
2712;SDS011;1366;47.988;7.856;2022-10-24T11:35:30;2.70;;;2.40;;
2712;SDS011;1366;47.988;7.856;2022-10-24T11:38:16;3.70;;;2.10;;
2712;SDS011;1366;47.988;7.856;2022-10-24T11:40:43;2.73;;;2.00;;
2712;SDS011;1366;47.988;7.856;2022-10-24T11:43:21;1.90;;;1.80;;
2712;SDS011;1366;47.988;7.856;2022-10-24T11:48:18;2.53;;;2.10;;
2712;SDS011;1366;47.988;7.856;2022-10-24T11:55:55;2.87;;;2.27;;
2712;SDS011;1366;47.988;7.856;2022-10-24T11:58:22;3.00;;;2.43;;
2712;SDS011;1366;47.988;7.856;2022-10-24T12:06:16;4.03;;;2.40;;
2712;SDS011;1366;47.988;7.856;2022-10-24T12:16:38;5.77;;;2.37;;
2712;SDS011;1366;47.988;7.856;2022-10-24T12:19:13;2.50;;;2.20;;
2712;SDS011;1366;47.988;7.856;2022-10-24T12:21:50;2.80;;;2.40;;
2712;SDS011;1366;47.988;7.856;2022-10-24T12:24:21;5.37;;;2.57;;
2712;SDS011;1366;47.988;7.856;2022-10-24T12:26:53;4.20;;;2.60;;
2712;SDS011;1366;47.988;7.856;2022-10-24T12:29:20;2.50;;;2.33;;
2712;SDS011;1366;47.988;7.856;2022-10-24T12:31:48;5.43;;;2.57;;
2712;SDS011;1366;47.988;7.856;2022-10-24T12:39:32;4.33;;;2.60;;
2712;SDS011;1366;47.988;7.856;2022-10-24T12:41:58;3.63;;;2.67;;
2712;SDS011;1366;47.988;7.856;2022-10-24T12:46:54;2.80;;;2.60;;
2712;SDS011;1366;47.988;7.856;2022-10-24T12:49:29;3.40;;;2.70;;
2712;SDS011;1366;47.988;7.856;2022-10-24T12:51:56;2.90;;;2.70;;
2712;SDS011;1366;47.988;7.856;2022-10-24T12:54:38;4.50;;;2.60;;
2712;SDS011;1366;47.988;7.856;2022-10-24T13:07:40;3.30;;;3.00;;
2712;SDS011;1366;47.988;7.856;2022-10-24T13:12:58;5.30;;;3.30;;
2712;SDS011;1366;47.988;7.856;2022-10-24T13:21:12;6.70;;;3.77;;
2712;SDS011;1366;47.988;7.856;2022-10-24T13:23:39;4.50;;;3.90;;
2712;SDS011;1366;47.988;7.856;2022-10-24T13:26:05;3.30;;;3.00;;
2712;SDS011;1366;47.988;7.856;2022-10-24T13:28:36;3.77;;;3.47;;
2712;SDS011;1366;47.988;7.856;2022-10-24T13:38:53;4.30;;;3.90;;
2712;SDS011;1366;47.988;7.856;2022-10-24T13:41:27;4.70;;;3.73;;
2712;SDS011;1366;47.988;7.856;2022-10-24T13:43:55;4.93;;;4.40;;
2712;SDS011;1366;47.988;7.856;2022-10-24T13:46:29;6.40;;;3.70;;
2712;SDS011;1366;47.988;7.856;2022-10-24T13:48:56;6.13;;;4.03;;
2712;SDS011;1366;47.988;7.856;2022-10-24T13:51:24;5.30;;;3.73;;
2712;SDS011;1366;47.988;7.856;2022-10-24T13:53:54;5.37;;;4.20;;
2712;SDS011;1366;47.988;7.856;2022-10-24T13:56:21;5.17;;;3.97;;
2712;SDS011;1366;47.988;7.856;2022-10-24T13:58:47;5.20;;;3.80;;
2712;SDS011;1366;47.988;7.856;2022-10-24T14:03:45;4.33;;;3.90;;
2712;SDS011;1366;47.988;7.856;2022-10-24T14:06:11;3.73;;;3.43;;
2712;SDS011;1366;47.988;7.856;2022-10-24T14:08:42;5.07;;;3.90;;
2712;SDS011;1366;47.988;7.856;2022-10-24T14:11:29;7.57;;;4.23;;
2712;SDS011;1366;47.988;7.856;2022-10-24T14:13:56;4.80;;;4.00;;
2712;SDS011;1366;47.988;7.856;2022-10-24T14:16:28;4.57;;;3.87;;
2712;SDS011;1366;47.988;7.856;2022-10-24T14:19:10;7.83;;;3.90;;
2712;SDS011;1366;47.988;7.856;2022-10-24T14:21:40;6.63;;;3.67;;
2712;SDS011;1366;47.988;7.856;2022-10-24T14:24:07;7.23;;;4.20;;
2712;SDS011;1366;47.988;7.856;2022-10-24T14:26:35;7.43;;;4.27;;
2712;SDS011;1366;47.988;7.856;2022-10-24T14:29:03;4.60;;;3.50;;
2712;SDS011;1366;47.988;7.856;2022-10-24T14:31:30;6.60;;;4.47;;
2712;SDS011;1366;47.988;7.856;2022-10-24T14:33:59;7.13;;;4.30;;
2712;SDS011;1366;47.988;7.856;2022-10-24T14:36:29;5.10;;;4.00;;
2712;SDS011;1366;47.988;7.856;2022-10-24T14:38:56;5.83;;;3.77;;
2712;SDS011;1366;47.988;7.856;2022-10-24T14:41:26;5.73;;;4.20;;
2712;SDS011;1366;47.988;7.856;2022-10-24T14:43:53;5.63;;;4.00;;
2712;SDS011;1366;47.988;7.856;2022-10-24T14:48:46;6.00;;;3.97;;
2712;SDS011;1366;47.988;7.856;2022-10-24T14:51:20;6.03;;;3.70;;
2712;SDS011;1366;47.988;7.856;2022-10-24T14:53:49;7.67;;;4.50;;
2712;SDS011;1366;47.988;7.856;2022-10-24T14:56:28;5.13;;;3.50;;
2712;SDS011;1366;47.988;7.856;2022-10-24T14:58:56;4.47;;;4.03;;
2712;SDS011;1366;47.988;7.856;2022-10-24T15:01:23;6.73;;;4.10;;
2712;SDS011;1366;47.988;7.856;2022-10-24T15:03:50;3.93;;;3.53;;
2712;SDS011;1366;47.988;7.856;2022-10-24T15:06:23;3.83;;;3.50;;
2712;SDS011;1366;47.988;7.856;2022-10-24T15:08:59;4.47;;;4.07;;
2712;SDS011;1366;47.988;7.856;2022-10-24T15:11:27;5.73;;;3.53;;
2712;SDS011;1366;47.988;7.856;2022-10-24T15:13:53;6.50;;;3.17;;
2712;SDS011;1366;47.988;7.856;2022-10-24T15:16:21;4.83;;;4.20;;
2712;SDS011;1366;47.988;7.856;2022-10-24T15:18:50;5.37;;;3.17;;
2712;SDS011;1366;47.988;7.856;2022-10-24T15:21:18;3.13;;;2.83;;
2712;SDS011;1366;47.988;7.856;2022-10-24T15:23:46;3.83;;;2.93;;
2712;SDS011;1366;47.988;7.856;2022-10-24T15:29:03;3.77;;;2.80;;
2712;SDS011;1366;47.988;7.856;2022-10-24T15:31:30;3.27;;;2.93;;
2712;SDS011;1366;47.988;7.856;2022-10-24T15:33:57;3.50;;;3.20;;
2712;SDS011;1366;47.988;7.856;2022-10-24T15:36:30;6.53;;;3.20;;
2712;SDS011;1366;47.988;7.856;2022-10-24T15:38:59;3.63;;;3.03;;
2712;SDS011;1366;47.988;7.856;2022-10-24T15:41:25;7.27;;;2.90;;
2712;SDS011;1366;47.988;7.856;2022-10-24T15:43:52;6.53;;;3.70;;
2712;SDS011;1366;47.988;7.856;2022-10-24T15:46:19;5.07;;;3.20;;
2712;SDS011;1366;47.988;7.856;2022-10-24T15:48:46;5.23;;;3.00;;
2712;SDS011;1366;47.988;7.856;2022-10-24T15:51:13;4.30;;;3.90;;
2712;SDS011;1366;47.988;7.856;2022-10-24T15:53:40;3.30;;;3.00;;
2712;SDS011;1366;47.988;7.856;2022-10-24T15:56:06;6.47;;;3.40;;
2712;SDS011;1366;47.988;7.856;2022-10-24T15:58:32;10.77;;;4.03;;
2712;SDS011;1366;47.988;7.856;2022-10-24T16:00:58;5.03;;;3.70;;
2712;SDS011;1366;47.988;7.856;2022-10-24T16:03:25;3.73;;;3.23;;
2712;SDS011;1366;47.988;7.856;2022-10-24T16:05:51;4.80;;;3.30;;
2712;SDS011;1366;47.988;7.856;2022-10-24T16:08:18;3.17;;;2.90;;
2712;SDS011;1366;47.988;7.856;2022-10-24T16:10:46;3.20;;;2.67;;
2712;SDS011;1366;47.988;7.856;2022-10-24T16:13:14;3.07;;;2.87;;
2712;SDS011;1366;47.988;7.856;2022-10-24T16:15:41;3.30;;;2.80;;
2712;SDS011;1366;47.988;7.856;2022-10-24T16:18:07;2.60;;;2.40;;
2712;SDS011;1366;47.988;7.856;2022-10-24T16:20:36;5.37;;;3.03;;
2712;SDS011;1366;47.988;7.856;2022-10-24T16:23:05;4.07;;;2.90;;
2712;SDS011;1366;47.988;7.856;2022-10-24T16:25:32;12.63;;;3.57;;
2712;SDS011;1366;47.988;7.856;2022-10-24T16:28:02;4.93;;;2.87;;
2712;SDS011;1366;47.988;7.856;2022-10-24T16:30:32;4.83;;;3.30;;
2712;SDS011;1366;47.988;7.856;2022-10-24T16:32:59;4.53;;;3.10;;
2712;SDS011;1366;47.988;7.856;2022-10-24T16:35:26;4.07;;;3.03;;
2712;SDS011;1366;47.988;7.856;2022-10-24T16:37:53;4.53;;;3.10;;
2712;SDS011;1366;47.988;7.856;2022-10-24T16:40:20;3.40;;;3.10;;
2712;SDS011;1366;47.988;7.856;2022-10-24T16:42:47;3.07;;;2.80;;
2712;SDS011;1366;47.988;7.856;2022-10-24T16:45:14;4.33;;;2.40;;
2712;SDS011;1366;47.988;7.856;2022-10-24T16:47:41;7.13;;;3.00;;
2712;SDS011;1366;47.988;7.856;2022-10-24T16:50:07;3.43;;;2.53;;
2712;SDS011;1366;47.988;7.856;2022-10-24T16:52:36;2.53;;;2.30;;
2712;SDS011;1366;47.988;7.856;2022-10-24T16:55:02;2.73;;;2.53;;
2712;SDS011;1366;47.988;7.856;2022-10-24T16:57:28;2.80;;;2.30;;
2712;SDS011;1366;47.988;7.856;2022-10-24T16:59:54;3.40;;;2.30;;
2712;SDS011;1366;47.988;7.856;2022-10-24T17:02:20;2.90;;;2.70;;
2712;SDS011;1366;47.988;7.856;2022-10-24T17:04:46;3.20;;;2.70;;
2712;SDS011;1366;47.988;7.856;2022-10-24T17:07:12;5.60;;;2.30;;
2712;SDS011;1366;47.988;7.856;2022-10-24T17:09:39;3.00;;;2.43;;
2712;SDS011;1366;47.988;7.856;2022-10-24T17:12:05;3.20;;;2.90;;
2712;SDS011;1366;47.988;7.856;2022-10-24T17:14:32;2.37;;;2.27;;
2712;SDS011;1366;47.988;7.856;2022-10-24T17:16:58;2.87;;;2.60;;
2712;SDS011;1366;47.988;7.856;2022-10-24T17:19:24;2.77;;;2.50;;
2712;SDS011;1366;47.988;7.856;2022-10-24T17:21:51;6.07;;;2.50;;
2712;SDS011;1366;47.988;7.856;2022-10-24T17:24:18;2.67;;;2.47;;
2712;SDS011;1366;47.988;7.856;2022-10-24T17:26:45;3.20;;;2.67;;
2712;SDS011;1366;47.988;7.856;2022-10-24T17:29:11;4.60;;;4.20;;
2712;SDS011;1366;47.988;7.856;2022-10-24T17:31:38;4.17;;;2.50;;
2712;SDS011;1366;47.988;7.856;2022-10-24T17:34:04;2.90;;;2.27;;
2712;SDS011;1366;47.988;7.856;2022-10-24T17:36:31;2.87;;;2.63;;
2712;SDS011;1366;47.988;7.856;2022-10-24T17:39:03;3.03;;;2.43;;
2712;SDS011;1366;47.988;7.856;2022-10-24T17:41:32;2.87;;;2.67;;
2712;SDS011;1366;47.988;7.856;2022-10-24T17:43:58;3.97;;;2.50;;
2712;SDS011;1366;47.988;7.856;2022-10-24T17:46:25;3.70;;;3.00;;
2712;SDS011;1366;47.988;7.856;2022-10-24T17:48:51;3.30;;;2.63;;
2712;SDS011;1366;47.988;7.856;2022-10-24T17:51:19;2.93;;;2.63;;
2712;SDS011;1366;47.988;7.856;2022-10-24T17:53:46;3.37;;;2.17;;
2712;SDS011;1366;47.988;7.856;2022-10-24T17:56:12;3.17;;;2.83;;
2712;SDS011;1366;47.988;7.856;2022-10-24T17:58:38;3.23;;;2.27;;
2712;SDS011;1366;47.988;7.856;2022-10-24T18:01:04;4.37;;;2.50;;
2712;SDS011;1366;47.988;7.856;2022-10-24T18:03:31;2.47;;;2.27;;
2712;SDS011;1366;47.988;7.856;2022-10-24T18:05:57;2.97;;;2.43;;
2712;SDS011;1366;47.988;7.856;2022-10-24T18:08:24;2.87;;;2.50;;
2712;SDS011;1366;47.988;7.856;2022-10-24T18:10:51;2.57;;;2.37;;
2712;SDS011;1366;47.988;7.856;2022-10-24T18:13:17;2.80;;;2.47;;
2712;SDS011;1366;47.988;7.856;2022-10-24T18:15:43;5.20;;;3.10;;
2712;SDS011;1366;47.988;7.856;2022-10-24T18:18:09;2.93;;;2.60;;
2712;SDS011;1366;47.988;7.856;2022-10-24T18:20:35;2.83;;;2.63;;
2712;SDS011;1366;47.988;7.856;2022-10-24T18:23:01;3.93;;;2.33;;
2712;SDS011;1366;47.988;7.856;2022-10-24T18:25:28;3.90;;;2.07;;
2712;SDS011;1366;47.988;7.856;2022-10-24T18:27:54;2.50;;;2.30;;
2712;SDS011;1366;47.988;7.856;2022-10-24T18:30:21;2.33;;;2.10;;
2712;SDS011;1366;47.988;7.856;2022-10-24T18:32:47;2.60;;;2.37;;
2712;SDS011;1366;47.988;7.856;2022-10-24T18:35:13;4.50;;;2.43;;
2712;SDS011;1366;47.988;7.856;2022-10-24T18:37:39;5.33;;;2.67;;
2712;SDS011;1366;47.988;7.856;2022-10-24T18:40:06;2.90;;;2.27;;
2712;SDS011;1366;47.988;7.856;2022-10-24T18:45:05;3.37;;;2.47;;
2712;SDS011;1366;47.988;7.856;2022-10-24T18:47:31;3.27;;;2.17;;
2712;SDS011;1366;47.988;7.856;2022-10-24T18:49:58;2.77;;;2.10;;
2712;SDS011;1366;47.988;7.856;2022-10-24T18:55:01;2.60;;;2.33;;
2712;SDS011;1366;47.988;7.856;2022-10-24T18:57:28;3.60;;;3.30;;
2712;SDS011;1366;47.988;7.856;2022-10-24T18:59:55;3.70;;;3.00;;
2712;SDS011;1366;47.988;7.856;2022-10-24T19:04:53;5.30;;;2.67;;
2712;SDS011;1366;47.988;7.856;2022-10-24T19:07:26;5.40;;;2.20;;
2712;SDS011;1366;47.988;7.856;2022-10-24T19:09:52;4.40;;;2.40;;
2712;SDS011;1366;47.988;7.856;2022-10-24T19:12:18;2.40;;;2.10;;
2712;SDS011;1366;47.988;7.856;2022-10-24T19:14:45;3.93;;;2.50;;
2712;SDS011;1366;47.988;7.856;2022-10-24T19:17:11;3.03;;;2.70;;
2712;SDS011;1366;47.988;7.856;2022-10-24T19:19:38;2.30;;;2.10;;
2712;SDS011;1366;47.988;7.856;2022-10-24T19:22:04;3.57;;;2.73;;
2712;SDS011;1366;47.988;7.856;2022-10-24T19:24:30;4.00;;;2.93;;
2712;SDS011;1366;47.988;7.856;2022-10-24T19:26:57;3.83;;;2.20;;
2712;SDS011;1366;47.988;7.856;2022-10-24T19:29:23;5.87;;;1.83;;
2712;SDS011;1366;47.988;7.856;2022-10-24T19:31:49;2.50;;;2.30;;
2712;SDS011;1366;47.988;7.856;2022-10-24T19:34:15;3.60;;;1.90;;
2712;SDS011;1366;47.988;7.856;2022-10-24T19:36:41;2.90;;;2.07;;
2712;SDS011;1366;47.988;7.856;2022-10-24T19:39:07;2.50;;;2.20;;
2712;SDS011;1366;47.988;7.856;2022-10-24T19:41:33;2.73;;;2.13;;
2712;SDS011;1366;47.988;7.856;2022-10-24T19:44:00;2.70;;;2.17;;
2712;SDS011;1366;47.988;7.856;2022-10-24T19:46:26;6.33;;;3.33;;
2712;SDS011;1366;47.988;7.856;2022-10-24T19:48:53;2.10;;;2.00;;
2712;SDS011;1366;47.988;7.856;2022-10-24T19:51:19;2.30;;;2.10;;
2712;SDS011;1366;47.988;7.856;2022-10-24T19:53:46;2.40;;;2.10;;
2712;SDS011;1366;47.988;7.856;2022-10-24T19:56:20;2.53;;;2.20;;
2712;SDS011;1366;47.988;7.856;2022-10-24T19:58:48;2.90;;;2.20;;
2712;SDS011;1366;47.988;7.856;2022-10-24T20:01:15;2.60;;;2.37;;
2712;SDS011;1366;47.988;7.856;2022-10-24T20:03:42;2.67;;;2.47;;
2712;SDS011;1366;47.988;7.856;2022-10-24T20:06:10;5.30;;;3.00;;
2712;SDS011;1366;47.988;7.856;2022-10-24T20:08:38;2.90;;;2.30;;
2712;SDS011;1366;47.988;7.856;2022-10-24T20:11:05;2.83;;;2.50;;
2712;SDS011;1366;47.988;7.856;2022-10-24T20:13:32;2.97;;;2.40;;
2712;SDS011;1366;47.988;7.856;2022-10-24T20:15:59;2.70;;;2.50;;
2712;SDS011;1366;47.988;7.856;2022-10-24T20:18:26;3.10;;;2.63;;
2712;SDS011;1366;47.988;7.856;2022-10-24T20:20:53;4.70;;;2.90;;
2712;SDS011;1366;47.988;7.856;2022-10-24T20:23:19;3.60;;;2.13;;
2712;SDS011;1366;47.988;7.856;2022-10-24T20:25:47;2.20;;;2.10;;
2712;SDS011;1366;47.988;7.856;2022-10-24T20:28:13;2.43;;;2.13;;
2712;SDS011;1366;47.988;7.856;2022-10-24T20:30:43;2.07;;;1.97;;
2712;SDS011;1366;47.988;7.856;2022-10-24T20:33:10;3.07;;;2.07;;
2712;SDS011;1366;47.988;7.856;2022-10-24T20:35:37;4.60;;;2.60;;
2712;SDS011;1366;47.988;7.856;2022-10-24T20:38:04;2.60;;;2.30;;
2712;SDS011;1366;47.988;7.856;2022-10-24T20:40:30;2.47;;;2.20;;
2712;SDS011;1366;47.988;7.856;2022-10-24T20:42:56;3.80;;;2.90;;
2712;SDS011;1366;47.988;7.856;2022-10-24T20:45:22;2.53;;;2.27;;
2712;SDS011;1366;47.988;7.856;2022-10-24T20:47:48;2.50;;;2.30;;
2712;SDS011;1366;47.988;7.856;2022-10-24T20:50:14;2.80;;;2.60;;
2712;SDS011;1366;47.988;7.856;2022-10-24T20:52:40;4.60;;;3.00;;
2712;SDS011;1366;47.988;7.856;2022-10-24T20:55:06;3.73;;;2.10;;
2712;SDS011;1366;47.988;7.856;2022-10-24T20:57:32;4.07;;;2.60;;
2712;SDS011;1366;47.988;7.856;2022-10-24T20:59:59;3.47;;;2.73;;
2712;SDS011;1366;47.988;7.856;2022-10-24T21:02:27;4.93;;;2.30;;
2712;SDS011;1366;47.988;7.856;2022-10-24T21:04:53;8.63;;;3.30;;
2712;SDS011;1366;47.988;7.856;2022-10-24T21:07:19;3.13;;;2.83;;
2712;SDS011;1366;47.988;7.856;2022-10-24T21:09:45;5.13;;;2.87;;